sensor_id;sensor_type;location;lat;lon;timestamp;P1;durP1;ratioP1;P2;durP2;ratioP2
76566;SDS011;65428;53.194;6.132;2023-03-01T00:01:24;116.43;;;27.87;;
76566;SDS011;65428;53.194;6.132;2023-03-01T00:03:52;78.60;;;20.48;;
76566;SDS011;65428;53.194;6.132;2023-03-01T00:06:18;186.55;;;26.45;;
76566;SDS011;65428;53.194;6.132;2023-03-01T00:08:45;254.48;;;30.60;;
76566;SDS011;65428;53.194;6.132;2023-03-01T00:13:38;111.57;;;27.60;;
76566;SDS011;65428;53.194;6.132;2023-03-01T00:16:05;103.65;;;29.25;;
76566;SDS011;65428;53.194;6.132;2023-03-01T00:18:33;71.22;;;23.42;;
76566;SDS011;65428;53.194;6.132;2023-03-01T00:20:59;96.13;;;26.17;;
76566;SDS011;65428;53.194;6.132;2023-03-01T00:23:25;141.75;;;27.73;;
76566;SDS011;65428;53.194;6.132;2023-03-01T00:25:51;165.18;;;30.50;;
76566;SDS011;65428;53.194;6.132;2023-03-01T00:28:17;127.40;;;28.10;;
76566;SDS011;65428;53.194;6.132;2023-03-01T00:30:44;104.55;;;27.15;;
76566;SDS011;65428;53.194;6.132;2023-03-01T00:33:10;68.57;;;28.83;;
76566;SDS011;65428;53.194;6.132;2023-03-01T00:35:36;55.70;;;28.30;;
76566;SDS011;65428;53.194;6.132;2023-03-01T00:38:01;74.30;;;26.80;;
76566;SDS011;65428;53.194;6.132;2023-03-01T00:40:28;85.50;;;27.85;;
76566;SDS011;65428;53.194;6.132;2023-03-01T00:42:55;131.65;;;29.45;;
76566;SDS011;65428;53.194;6.132;2023-03-01T00:45:21;83.22;;;24.75;;
76566;SDS011;65428;53.194;6.132;2023-03-01T00:47:47;106.32;;;26.00;;
76566;SDS011;65428;53.194;6.132;2023-03-01T00:50:14;65.80;;;26.48;;
76566;SDS011;65428;53.194;6.132;2023-03-01T00:52:39;113.53;;;28.37;;
76566;SDS011;65428;53.194;6.132;2023-03-01T00:55:05;70.03;;;26.77;;
76566;SDS011;65428;53.194;6.132;2023-03-01T00:57:31;99.27;;;29.37;;
76566;SDS011;65428;53.194;6.132;2023-03-01T00:59:58;104.50;;;26.73;;
76566;SDS011;65428;53.194;6.132;2023-03-01T01:02:24;88.88;;;28.65;;
76566;SDS011;65428;53.194;6.132;2023-03-01T01:04:50;120.23;;;33.77;;
76566;SDS011;65428;53.194;6.132;2023-03-01T01:07:16;87.93;;;29.17;;
76566;SDS011;65428;53.194;6.132;2023-03-01T01:09:41;137.27;;;33.07;;
76566;SDS011;65428;53.194;6.132;2023-03-01T01:12:07;38.17;;;28.10;;
76566;SDS011;65428;53.194;6.132;2023-03-01T01:14:34;26.40;;;22.57;;
76566;SDS011;65428;53.194;6.132;2023-03-01T01:17:00;28.35;;;23.38;;
76566;SDS011;65428;53.194;6.132;2023-03-01T01:19:25;25.73;;;22.20;;
76566;SDS011;65428;53.194;6.132;2023-03-01T01:21:52;25.75;;;22.20;;
76566;SDS011;65428;53.194;6.132;2023-03-01T01:24:18;64.60;;;21.70;;
76566;SDS011;65428;53.194;6.132;2023-03-01T01:26:44;62.80;;;21.77;;
76566;SDS011;65428;53.194;6.132;2023-03-01T01:29:10;32.35;;;19.60;;
76566;SDS011;65428;53.194;6.132;2023-03-01T01:31:37;25.80;;;19.90;;
76566;SDS011;65428;53.194;6.132;2023-03-01T01:34:04;62.65;;;23.40;;
76566;SDS011;65428;53.194;6.132;2023-03-01T01:36:31;22.40;;;19.57;;
76566;SDS011;65428;53.194;6.132;2023-03-01T01:38:57;18.95;;;16.90;;
76566;SDS011;65428;53.194;6.132;2023-03-01T01:41:24;19.30;;;17.27;;
76566;SDS011;65428;53.194;6.132;2023-03-01T01:49:43;37.97;;;19.33;;
76566;SDS011;65428;53.194;6.132;2023-03-01T01:52:19;41.53;;;22.40;;
76566;SDS011;65428;53.194;6.132;2023-03-01T01:55:00;55.72;;;21.70;;
76566;SDS011;65428;53.194;6.132;2023-03-01T01:57:31;30.35;;;19.65;;
76566;SDS011;65428;53.194;6.132;2023-03-01T02:00:03;108.78;;;25.00;;
76566;SDS011;65428;53.194;6.132;2023-03-01T02:02:31;175.55;;;25.35;;
76566;SDS011;65428;53.194;6.132;2023-03-01T02:05:06;93.10;;;20.00;;
76566;SDS011;65428;53.194;6.132;2023-03-01T02:07:38;135.27;;;20.70;;
76566;SDS011;65428;53.194;6.132;2023-03-01T02:10:05;155.02;;;22.92;;
76566;SDS011;65428;53.194;6.132;2023-03-01T02:12:31;88.80;;;21.45;;
76566;SDS011;65428;53.194;6.132;2023-03-01T02:14:57;112.70;;;24.10;;
76566;SDS011;65428;53.194;6.132;2023-03-01T02:17:23;31.33;;;16.13;;
76566;SDS011;65428;53.194;6.132;2023-03-01T02:22:33;26.15;;;20.88;;
76566;SDS011;65428;53.194;6.132;2023-03-01T02:25:07;32.97;;;20.03;;
76566;SDS011;65428;53.194;6.132;2023-03-01T02:27:55;48.57;;;19.63;;
76566;SDS011;65428;53.194;6.132;2023-03-01T02:30:25;67.35;;;18.67;;
76566;SDS011;65428;53.194;6.132;2023-03-01T02:32:52;56.58;;;19.20;;
76566;SDS011;65428;53.194;6.132;2023-03-01T02:35:27;81.47;;;21.98;;
76566;SDS011;65428;53.194;6.132;2023-03-01T02:37:55;94.30;;;22.10;;
76566;SDS011;65428;53.194;6.132;2023-03-01T02:40:22;69.07;;;19.60;;
76566;SDS011;65428;53.194;6.132;2023-03-01T02:42:53;32.58;;;19.60;;
76566;SDS011;65428;53.194;6.132;2023-03-01T02:45:21;31.42;;;17.02;;
76566;SDS011;65428;53.194;6.132;2023-03-01T02:47:48;56.13;;;20.40;;
76566;SDS011;65428;53.194;6.132;2023-03-01T02:50:41;82.95;;;19.38;;
76566;SDS011;65428;53.194;6.132;2023-03-01T02:53:16;87.78;;;27.40;;
76566;SDS011;65428;53.194;6.132;2023-03-01T02:55:51;51.20;;;22.70;;
76566;SDS011;65428;53.194;6.132;2023-03-01T02:58:16;92.43;;;26.30;;
76566;SDS011;65428;53.194;6.132;2023-03-01T03:00:42;65.25;;;26.02;;
76566;SDS011;65428;53.194;6.132;2023-03-01T03:03:20;99.27;;;28.33;;
76566;SDS011;65428;53.194;6.132;2023-03-01T03:05:47;39.88;;;23.80;;
76566;SDS011;65428;53.194;6.132;2023-03-01T03:08:13;69.30;;;25.73;;
76566;SDS011;65428;53.194;6.132;2023-03-01T03:10:48;58.63;;;26.45;;
76566;SDS011;65428;53.194;6.132;2023-03-01T03:13:14;92.38;;;30.33;;
76566;SDS011;65428;53.194;6.132;2023-03-01T03:15:41;48.88;;;26.20;;
76566;SDS011;65428;53.194;6.132;2023-03-01T03:18:12;49.27;;;26.13;;
76566;SDS011;65428;53.194;6.132;2023-03-01T03:20:40;65.93;;;28.05;;
76566;SDS011;65428;53.194;6.132;2023-03-01T03:23:07;96.03;;;32.65;;
76566;SDS011;65428;53.194;6.132;2023-03-01T03:25:33;86.82;;;29.30;;
76566;SDS011;65428;53.194;6.132;2023-03-01T03:28:02;107.97;;;31.02;;
76566;SDS011;65428;53.194;6.132;2023-03-01T03:30:34;94.20;;;32.47;;
76566;SDS011;65428;53.194;6.132;2023-03-01T03:33:04;98.05;;;31.50;;
76566;SDS011;65428;53.194;6.132;2023-03-01T03:35:41;131.82;;;32.20;;
76566;SDS011;65428;53.194;6.132;2023-03-01T03:38:12;77.15;;;29.10;;
76566;SDS011;65428;53.194;6.132;2023-03-01T03:40:46;62.13;;;29.58;;
76566;SDS011;65428;53.194;6.132;2023-03-01T03:43:14;302.90;;;47.10;;
76566;SDS011;65428;53.194;6.132;2023-03-01T03:45:43;135.48;;;36.95;;
76566;SDS011;65428;53.194;6.132;2023-03-01T03:48:10;191.23;;;40.17;;
76566;SDS011;65428;53.194;6.132;2023-03-01T03:50:37;270.15;;;39.00;;
76566;SDS011;65428;53.194;6.132;2023-03-01T03:53:08;178.20;;;33.65;;
76566;SDS011;65428;53.194;6.132;2023-03-01T03:55:36;156.10;;;35.38;;
76566;SDS011;65428;53.194;6.132;2023-03-01T03:58:04;162.32;;;35.42;;
76566;SDS011;65428;53.194;6.132;2023-03-01T04:00:38;152.77;;;34.75;;
76566;SDS011;65428;53.194;6.132;2023-03-01T04:03:06;149.35;;;32.30;;
76566;SDS011;65428;53.194;6.132;2023-03-01T04:05:32;121.90;;;31.30;;
76566;SDS011;65428;53.194;6.132;2023-03-01T04:07:58;105.03;;;31.83;;
76566;SDS011;65428;53.194;6.132;2023-03-01T04:10:30;93.07;;;27.83;;
76566;SDS011;65428;53.194;6.132;2023-03-01T04:12:57;80.90;;;28.77;;
76566;SDS011;65428;53.194;6.132;2023-03-01T04:15:24;66.07;;;27.20;;
76566;SDS011;65428;53.194;6.132;2023-03-01T04:17:51;46.45;;;22.95;;
76566;SDS011;65428;53.194;6.132;2023-03-01T04:20:19;57.50;;;26.50;;
76566;SDS011;65428;53.194;6.132;2023-03-01T04:25:42;44.00;;;22.90;;
76566;SDS011;65428;53.194;6.132;2023-03-01T04:28:11;41.80;;;21.58;;
76566;SDS011;65428;53.194;6.132;2023-03-01T04:30:37;67.00;;;22.63;;
76566;SDS011;65428;53.194;6.132;2023-03-01T04:33:07;59.20;;;24.60;;
76566;SDS011;65428;53.194;6.132;2023-03-01T04:35:34;50.70;;;23.30;;
76566;SDS011;65428;53.194;6.132;2023-03-01T04:38:00;47.40;;;20.63;;
76566;SDS011;65428;53.194;6.132;2023-03-01T04:40:26;70.43;;;21.63;;
76566;SDS011;65428;53.194;6.132;2023-03-01T04:42:52;46.20;;;21.48;;
76566;SDS011;65428;53.194;6.132;2023-03-01T04:45:18;71.27;;;24.77;;
76566;SDS011;65428;53.194;6.132;2023-03-01T04:47:44;39.05;;;20.38;;
76566;SDS011;65428;53.194;6.132;2023-03-01T04:50:15;22.38;;;17.42;;
76566;SDS011;65428;53.194;6.132;2023-03-01T04:52:42;24.92;;;18.38;;
76566;SDS011;65428;53.194;6.132;2023-03-01T04:55:09;31.63;;;20.27;;
76566;SDS011;65428;53.194;6.132;2023-03-01T04:57:35;26.55;;;18.73;;
76566;SDS011;65428;53.194;6.132;2023-03-01T05:00:02;67.32;;;22.08;;
76566;SDS011;65428;53.194;6.132;2023-03-01T05:02:44;58.13;;;19.53;;
76566;SDS011;65428;53.194;6.132;2023-03-01T05:07:58;114.03;;;24.02;;
76566;SDS011;65428;53.194;6.132;2023-03-01T05:10:26;84.22;;;17.83;;
76566;SDS011;65428;53.194;6.132;2023-03-01T05:12:54;88.57;;;21.60;;
76566;SDS011;65428;53.194;6.132;2023-03-01T05:15:22;82.47;;;21.95;;
76566;SDS011;65428;53.194;6.132;2023-03-01T05:17:50;86.30;;;21.75;;
76566;SDS011;65428;53.194;6.132;2023-03-01T05:20:17;72.70;;;20.77;;
76566;SDS011;65428;53.194;6.132;2023-03-01T05:22:43;51.63;;;18.37;;
76566;SDS011;65428;53.194;6.132;2023-03-01T05:25:09;73.60;;;19.60;;
76566;SDS011;65428;53.194;6.132;2023-03-01T05:27:35;56.50;;;19.20;;
76566;SDS011;65428;53.194;6.132;2023-03-01T05:30:01;23.33;;;16.98;;
76566;SDS011;65428;53.194;6.132;2023-03-01T05:32:38;25.30;;;18.05;;
76566;SDS011;65428;53.194;6.132;2023-03-01T05:35:09;56.38;;;21.70;;
76566;SDS011;65428;53.194;6.132;2023-03-01T05:37:38;46.58;;;20.15;;
76566;SDS011;65428;53.194;6.132;2023-03-01T05:40:05;51.70;;;20.50;;
76566;SDS011;65428;53.194;6.132;2023-03-01T05:42:40;22.15;;;16.80;;
76566;SDS011;65428;53.194;6.132;2023-03-01T05:45:17;26.50;;;17.55;;
76566;SDS011;65428;53.194;6.132;2023-03-01T05:47:44;21.55;;;16.58;;
76566;SDS011;65428;53.194;6.132;2023-03-01T05:52:36;20.67;;;16.77;;
76566;SDS011;65428;53.194;6.132;2023-03-01T05:55:02;18.53;;;15.13;;
76566;SDS011;65428;53.194;6.132;2023-03-01T05:57:28;21.63;;;16.45;;
76566;SDS011;65428;53.194;6.132;2023-03-01T05:59:54;36.13;;;18.38;;
76566;SDS011;65428;53.194;6.132;2023-03-01T06:02:19;23.50;;;17.13;;
76566;SDS011;65428;53.194;6.132;2023-03-01T06:04:45;27.55;;;16.88;;
76566;SDS011;65428;53.194;6.132;2023-03-01T06:07:10;45.63;;;17.65;;
76566;SDS011;65428;53.194;6.132;2023-03-01T06:09:36;136.20;;;24.20;;
76566;SDS011;65428;53.194;6.132;2023-03-01T06:12:01;85.53;;;25.40;;
76566;SDS011;65428;53.194;6.132;2023-03-01T06:14:27;111.05;;;26.08;;
76566;SDS011;65428;53.194;6.132;2023-03-01T06:16:53;105.18;;;24.20;;
76566;SDS011;65428;53.194;6.132;2023-03-01T06:19:18;102.90;;;25.58;;
76566;SDS011;65428;53.194;6.132;2023-03-01T06:21:44;74.63;;;27.43;;
76566;SDS011;65428;53.194;6.132;2023-03-01T06:24:10;47.60;;;22.27;;
76566;SDS011;65428;53.194;6.132;2023-03-01T06:26:35;60.97;;;23.97;;
76566;SDS011;65428;53.194;6.132;2023-03-01T06:29:01;59.00;;;25.58;;
76566;SDS011;65428;53.194;6.132;2023-03-01T06:31:27;32.10;;;22.27;;
76566;SDS011;65428;53.194;6.132;2023-03-01T06:33:52;31.15;;;22.85;;
76566;SDS011;65428;53.194;6.132;2023-03-01T06:36:18;29.83;;;21.83;;
76566;SDS011;65428;53.194;6.132;2023-03-01T06:38:46;28.00;;;20.83;;
76566;SDS011;65428;53.194;6.132;2023-03-01T06:41:12;25.77;;;19.70;;
76566;SDS011;65428;53.194;6.132;2023-03-01T06:43:37;27.93;;;21.03;;
76566;SDS011;65428;53.194;6.132;2023-03-01T06:46:03;24.10;;;18.07;;
76566;SDS011;65428;53.194;6.132;2023-03-01T06:48:31;22.08;;;17.00;;
76566;SDS011;65428;53.194;6.132;2023-03-01T06:50:58;22.67;;;17.90;;
76566;SDS011;65428;53.194;6.132;2023-03-01T06:53:26;23.42;;;18.73;;
76566;SDS011;65428;53.194;6.132;2023-03-01T06:55:56;20.92;;;17.45;;
76566;SDS011;65428;53.194;6.132;2023-03-01T06:58:22;23.33;;;18.13;;
76566;SDS011;65428;53.194;6.132;2023-03-01T07:00:48;25.20;;;20.13;;
76566;SDS011;65428;53.194;6.132;2023-03-01T07:03:13;27.43;;;22.13;;
76566;SDS011;65428;53.194;6.132;2023-03-01T07:05:39;26.73;;;21.58;;
76566;SDS011;65428;53.194;6.132;2023-03-01T07:08:05;29.40;;;23.48;;
76566;SDS011;65428;53.194;6.132;2023-03-01T07:10:30;25.38;;;21.50;;
76566;SDS011;65428;53.194;6.132;2023-03-01T07:12:57;21.83;;;18.52;;
76566;SDS011;65428;53.194;6.132;2023-03-01T07:15:23;18.45;;;16.17;;
76566;SDS011;65428;53.194;6.132;2023-03-01T07:17:49;23.58;;;18.92;;
76566;SDS011;65428;53.194;6.132;2023-03-01T07:20:16;22.60;;;19.27;;
76566;SDS011;65428;53.194;6.132;2023-03-01T07:22:42;22.40;;;19.05;;
76566;SDS011;65428;53.194;6.132;2023-03-01T07:25:09;26.08;;;21.67;;
76566;SDS011;65428;53.194;6.132;2023-03-01T07:27:35;26.80;;;23.23;;
76566;SDS011;65428;53.194;6.132;2023-03-01T07:30:01;31.67;;;25.13;;
76566;SDS011;65428;53.194;6.132;2023-03-01T07:32:27;29.17;;;23.95;;
76566;SDS011;65428;53.194;6.132;2023-03-01T07:34:53;29.07;;;23.20;;
76566;SDS011;65428;53.194;6.132;2023-03-01T07:37:18;30.45;;;24.27;;
76566;SDS011;65428;53.194;6.132;2023-03-01T07:39:44;31.63;;;26.17;;
76566;SDS011;65428;53.194;6.132;2023-03-01T07:42:10;29.08;;;23.70;;
76566;SDS011;65428;53.194;6.132;2023-03-01T07:44:36;29.95;;;23.17;;
76566;SDS011;65428;53.194;6.132;2023-03-01T07:47:02;29.38;;;24.20;;
76566;SDS011;65428;53.194;6.132;2023-03-01T07:49:29;29.20;;;24.83;;
76566;SDS011;65428;53.194;6.132;2023-03-01T07:51:54;39.42;;;31.48;;
76566;SDS011;65428;53.194;6.132;2023-03-01T07:54:20;30.67;;;27.15;;
76566;SDS011;65428;53.194;6.132;2023-03-01T07:56:46;39.30;;;31.40;;
76566;SDS011;65428;53.194;6.132;2023-03-01T07:59:11;31.40;;;26.30;;
76566;SDS011;65428;53.194;6.132;2023-03-01T08:01:37;33.10;;;26.88;;
76566;SDS011;65428;53.194;6.132;2023-03-01T08:04:03;30.07;;;25.57;;
76566;SDS011;65428;53.194;6.132;2023-03-01T08:06:31;31.08;;;26.13;;
76566;SDS011;65428;53.194;6.132;2023-03-01T08:08:59;34.38;;;26.88;;
76566;SDS011;65428;53.194;6.132;2023-03-01T08:11:25;30.77;;;25.58;;
76566;SDS011;65428;53.194;6.132;2023-03-01T08:13:53;33.65;;;26.52;;
76566;SDS011;65428;53.194;6.132;2023-03-01T08:16:18;30.70;;;25.52;;
76566;SDS011;65428;53.194;6.132;2023-03-01T08:18:44;30.05;;;25.23;;
76566;SDS011;65428;53.194;6.132;2023-03-01T08:21:11;29.00;;;24.50;;
76566;SDS011;65428;53.194;6.132;2023-03-01T08:23:38;29.02;;;24.48;;
76566;SDS011;65428;53.194;6.132;2023-03-01T08:26:05;31.48;;;26.75;;
76566;SDS011;65428;53.194;6.132;2023-03-01T08:28:33;35.95;;;28.33;;
76566;SDS011;65428;53.194;6.132;2023-03-01T08:30:59;38.95;;;29.77;;
76566;SDS011;65428;53.194;6.132;2023-03-01T08:33:26;40.90;;;30.92;;
76566;SDS011;65428;53.194;6.132;2023-03-01T08:35:51;46.80;;;33.38;;
76566;SDS011;65428;53.194;6.132;2023-03-01T08:38:17;44.85;;;33.92;;
76566;SDS011;65428;53.194;6.132;2023-03-01T08:40:42;41.67;;;31.73;;
76566;SDS011;65428;53.194;6.132;2023-03-01T08:43:08;44.13;;;31.43;;
76566;SDS011;65428;53.194;6.132;2023-03-01T08:45:34;44.67;;;33.27;;
76566;SDS011;65428;53.194;6.132;2023-03-01T08:47:59;44.08;;;32.92;;
76566;SDS011;65428;53.194;6.132;2023-03-01T08:50:25;43.40;;;33.13;;
76566;SDS011;65428;53.194;6.132;2023-03-01T08:52:50;52.80;;;37.77;;
76566;SDS011;65428;53.194;6.132;2023-03-01T08:55:16;47.13;;;36.42;;
76566;SDS011;65428;53.194;6.132;2023-03-01T08:57:42;45.90;;;35.13;;
76566;SDS011;65428;53.194;6.132;2023-03-01T09:00:09;44.92;;;35.67;;
76566;SDS011;65428;53.194;6.132;2023-03-01T09:02:36;44.95;;;35.85;;
76566;SDS011;65428;53.194;6.132;2023-03-01T09:05:02;41.95;;;33.38;;
76566;SDS011;65428;53.194;6.132;2023-03-01T09:07:27;41.72;;;33.42;;
76566;SDS011;65428;53.194;6.132;2023-03-01T09:09:53;37.22;;;30.90;;
76566;SDS011;65428;53.194;6.132;2023-03-01T09:12:20;46.10;;;36.03;;
76566;SDS011;65428;53.194;6.132;2023-03-01T09:14:46;45.95;;;37.17;;
76566;SDS011;65428;53.194;6.132;2023-03-01T09:17:11;44.53;;;34.93;;
76566;SDS011;65428;53.194;6.132;2023-03-01T09:19:37;45.63;;;35.37;;
76566;SDS011;65428;53.194;6.132;2023-03-01T09:22:03;40.65;;;33.22;;
76566;SDS011;65428;53.194;6.132;2023-03-01T09:24:29;39.42;;;32.95;;
76566;SDS011;65428;53.194;6.132;2023-03-01T09:26:55;41.87;;;33.63;;
76566;SDS011;65428;53.194;6.132;2023-03-01T09:29:22;37.92;;;32.72;;
76566;SDS011;65428;53.194;6.132;2023-03-01T09:31:48;35.30;;;29.77;;
76566;SDS011;65428;53.194;6.132;2023-03-01T09:34:14;38.93;;;31.37;;
76566;SDS011;65428;53.194;6.132;2023-03-01T09:36:41;35.15;;;29.58;;
76566;SDS011;65428;53.194;6.132;2023-03-01T09:39:06;36.80;;;30.80;;
76566;SDS011;65428;53.194;6.132;2023-03-01T09:46:51;33.00;;;27.50;;
76566;SDS011;65428;53.194;6.132;2023-03-01T09:49:25;31.10;;;27.05;;
76566;SDS011;65428;53.194;6.132;2023-03-01T09:54:44;30.95;;;24.95;;
76566;SDS011;65428;53.194;6.132;2023-03-01T10:02:58;23.60;;;21.10;;
76566;SDS011;65428;53.194;6.132;2023-03-01T10:05:56;23.67;;;21.00;;
76566;SDS011;65428;53.194;6.132;2023-03-01T10:08:42;22.65;;;20.35;;
76566;SDS011;65428;53.194;6.132;2023-03-01T10:11:20;23.03;;;20.57;;
76566;SDS011;65428;53.194;6.132;2023-03-01T10:14:09;21.60;;;19.42;;
76566;SDS011;65428;53.194;6.132;2023-03-01T10:19:18;21.65;;;19.58;;
76566;SDS011;65428;53.194;6.132;2023-03-01T10:21:49;19.48;;;17.58;;
76566;SDS011;65428;53.194;6.132;2023-03-01T10:24:17;18.45;;;16.75;;
76566;SDS011;65428;53.194;6.132;2023-03-01T10:26:53;18.52;;;16.85;;
76566;SDS011;65428;53.194;6.132;2023-03-01T10:29:26;18.98;;;17.17;;
76566;SDS011;65428;53.194;6.132;2023-03-01T10:31:56;18.73;;;16.83;;
76566;SDS011;65428;53.194;6.132;2023-03-01T10:36:56;17.80;;;16.20;;
76566;SDS011;65428;53.194;6.132;2023-03-01T10:39:26;17.83;;;16.33;;
76566;SDS011;65428;53.194;6.132;2023-03-01T10:44:39;18.50;;;16.88;;
76566;SDS011;65428;53.194;6.132;2023-03-01T10:47:19;18.05;;;16.35;;
76566;SDS011;65428;53.194;6.132;2023-03-01T10:52:19;16.37;;;14.83;;
76566;SDS011;65428;53.194;6.132;2023-03-01T10:54:51;16.02;;;14.65;;
76566;SDS011;65428;53.194;6.132;2023-03-01T10:57:29;15.98;;;14.57;;
76566;SDS011;65428;53.194;6.132;2023-03-01T11:00:02;17.08;;;15.48;;
76566;SDS011;65428;53.194;6.132;2023-03-01T11:02:41;14.77;;;13.57;;
76566;SDS011;65428;53.194;6.132;2023-03-01T11:07:48;13.65;;;12.45;;
76566;SDS011;65428;53.194;6.132;2023-03-01T11:10:25;15.05;;;13.73;;
76566;SDS011;65428;53.194;6.132;2023-03-01T11:12:54;13.33;;;12.17;;
76566;SDS011;65428;53.194;6.132;2023-03-01T11:15:39;13.05;;;11.90;;
76566;SDS011;65428;53.194;6.132;2023-03-01T11:18:04;13.13;;;12.07;;
76566;SDS011;65428;53.194;6.132;2023-03-01T11:20:44;13.68;;;12.30;;
76566;SDS011;65428;53.194;6.132;2023-03-01T11:23:11;13.83;;;12.53;;
76566;SDS011;65428;53.194;6.132;2023-03-01T11:25:39;14.00;;;12.82;;
76566;SDS011;65428;53.194;6.132;2023-03-01T11:28:17;12.63;;;11.52;;
76566;SDS011;65428;53.194;6.132;2023-03-01T11:38:51;13.35;;;12.05;;
76566;SDS011;65428;53.194;6.132;2023-03-01T11:41:20;13.00;;;11.88;;
76566;SDS011;65428;53.194;6.132;2023-03-01T11:44:03;14.15;;;12.93;;
76566;SDS011;65428;53.194;6.132;2023-03-01T11:49:52;13.70;;;12.60;;
76566;SDS011;65428;53.194;6.132;2023-03-01T11:55:14;13.82;;;12.52;;
76566;SDS011;65428;53.194;6.132;2023-03-01T11:57:59;13.85;;;12.55;;
76566;SDS011;65428;53.194;6.132;2023-03-01T12:08:38;12.90;;;11.80;;
76566;SDS011;65428;53.194;6.132;2023-03-01T12:11:17;13.68;;;12.48;;
76566;SDS011;65428;53.194;6.132;2023-03-01T12:22:20;12.80;;;11.60;;
76566;SDS011;65428;53.194;6.132;2023-03-01T12:24:56;11.33;;;10.43;;
76566;SDS011;65428;53.194;6.132;2023-03-01T12:38:50;12.68;;;11.68;;
76566;SDS011;65428;53.194;6.132;2023-03-01T12:44:27;13.07;;;11.98;;
76566;SDS011;65428;53.194;6.132;2023-03-01T12:49:49;12.70;;;11.68;;
76566;SDS011;65428;53.194;6.132;2023-03-01T12:52:36;12.85;;;11.68;;
76566;SDS011;65428;53.194;6.132;2023-03-01T12:55:08;12.63;;;11.52;;
76566;SDS011;65428;53.194;6.132;2023-03-01T12:57:47;12.50;;;11.50;;
76566;SDS011;65428;53.194;6.132;2023-03-01T13:00:37;13.00;;;11.80;;
76566;SDS011;65428;53.194;6.132;2023-03-01T13:06:04;12.70;;;11.60;;
76566;SDS011;65428;53.194;6.132;2023-03-01T13:11:40;12.55;;;11.40;;
76566;SDS011;65428;53.194;6.132;2023-03-01T13:16:46;13.43;;;12.32;;
76566;SDS011;65428;53.194;6.132;2023-03-01T13:19:21;13.07;;;11.90;;
76566;SDS011;65428;53.194;6.132;2023-03-01T13:21:50;13.38;;;12.18;;
76566;SDS011;65428;53.194;6.132;2023-03-01T13:24:23;12.27;;;11.18;;
76566;SDS011;65428;53.194;6.132;2023-03-01T13:29:53;13.63;;;12.43;;
76566;SDS011;65428;53.194;6.132;2023-03-01T13:32:28;12.93;;;11.83;;
76566;SDS011;65428;53.194;6.132;2023-03-01T13:34:59;12.63;;;11.52;;
76566;SDS011;65428;53.194;6.132;2023-03-01T13:37:44;12.68;;;11.68;;
76566;SDS011;65428;53.194;6.132;2023-03-01T13:42:46;12.48;;;11.38;;
76566;SDS011;65428;53.194;6.132;2023-03-01T13:47:48;13.13;;;11.95;;
76566;SDS011;65428;53.194;6.132;2023-03-01T13:50:33;13.27;;;12.07;;
76566;SDS011;65428;53.194;6.132;2023-03-01T13:53:10;12.43;;;11.33;;
76566;SDS011;65428;53.194;6.132;2023-03-01T13:55:45;11.60;;;10.60;;
76566;SDS011;65428;53.194;6.132;2023-03-01T13:58:15;11.43;;;10.48;;
76566;SDS011;65428;53.194;6.132;2023-03-01T14:01:06;12.20;;;11.10;;
76566;SDS011;65428;53.194;6.132;2023-03-01T14:03:45;12.57;;;11.48;;
76566;SDS011;65428;53.194;6.132;2023-03-01T14:06:19;12.25;;;11.15;;
76566;SDS011;65428;53.194;6.132;2023-03-01T14:08:51;12.90;;;11.70;;
76566;SDS011;65428;53.194;6.132;2023-03-01T14:11:33;12.63;;;11.43;;
76566;SDS011;65428;53.194;6.132;2023-03-01T14:20:02;11.93;;;10.73;;
76566;SDS011;65428;53.194;6.132;2023-03-01T14:22:49;11.45;;;10.35;;
76566;SDS011;65428;53.194;6.132;2023-03-01T14:25:19;11.57;;;10.57;;
76566;SDS011;65428;53.194;6.132;2023-03-01T14:28:12;11.13;;;10.10;;
76566;SDS011;65428;53.194;6.132;2023-03-01T14:30:49;11.80;;;10.60;;
76566;SDS011;65428;53.194;6.132;2023-03-01T14:35:53;11.45;;;10.38;;
76566;SDS011;65428;53.194;6.132;2023-03-01T14:41:01;12.40;;;11.20;;
76566;SDS011;65428;53.194;6.132;2023-03-01T14:43:30;12.68;;;11.45;;
76566;SDS011;65428;53.194;6.132;2023-03-01T14:45:56;11.60;;;10.43;;
76566;SDS011;65428;53.194;6.132;2023-03-01T14:48:22;11.95;;;10.88;;
76566;SDS011;65428;53.194;6.132;2023-03-01T14:50:48;12.03;;;10.93;;
76566;SDS011;65428;53.194;6.132;2023-03-01T14:53:20;12.10;;;10.90;;
76566;SDS011;65428;53.194;6.132;2023-03-01T14:55:50;11.50;;;10.50;;
76566;SDS011;65428;53.194;6.132;2023-03-01T14:58:19;11.55;;;10.48;;
76566;SDS011;65428;53.194;6.132;2023-03-01T15:00:51;12.02;;;10.93;;
76566;SDS011;65428;53.194;6.132;2023-03-01T15:03:40;12.63;;;11.43;;
76566;SDS011;65428;53.194;6.132;2023-03-01T15:06:09;13.15;;;11.85;;
76566;SDS011;65428;53.194;6.132;2023-03-01T15:08:41;14.02;;;12.73;;
76566;SDS011;65428;53.194;6.132;2023-03-01T15:13:38;14.27;;;12.98;;
76566;SDS011;65428;53.194;6.132;2023-03-01T15:16:09;12.63;;;11.50;;
76566;SDS011;65428;53.194;6.132;2023-03-01T15:18:36;13.15;;;11.95;;
76566;SDS011;65428;53.194;6.132;2023-03-01T15:21:09;13.63;;;12.23;;
76566;SDS011;65428;53.194;6.132;2023-03-01T15:23:41;12.30;;;11.10;;
76566;SDS011;65428;53.194;6.132;2023-03-01T15:26:24;12.63;;;11.38;;
76566;SDS011;65428;53.194;6.132;2023-03-01T15:28:53;12.75;;;11.55;;
76566;SDS011;65428;53.194;6.132;2023-03-01T15:31:36;12.70;;;10.93;;
76566;SDS011;65428;53.194;6.132;2023-03-01T15:36:53;12.52;;;11.25;;
76566;SDS011;65428;53.194;6.132;2023-03-01T15:39:37;12.73;;;11.53;;
76566;SDS011;65428;53.194;6.132;2023-03-01T15:42:12;12.95;;;11.65;;
76566;SDS011;65428;53.194;6.132;2023-03-01T15:47:48;12.60;;;11.47;;
76566;SDS011;65428;53.194;6.132;2023-03-01T15:50:27;12.30;;;11.00;;
76566;SDS011;65428;53.194;6.132;2023-03-01T15:52:55;11.70;;;10.50;;
76566;SDS011;65428;53.194;6.132;2023-03-01T15:55:24;11.80;;;10.60;;
76566;SDS011;65428;53.194;6.132;2023-03-01T15:58:17;11.30;;;10.15;;
76566;SDS011;65428;53.194;6.132;2023-03-01T16:00:43;11.63;;;10.43;;
76566;SDS011;65428;53.194;6.132;2023-03-01T16:03:10;11.90;;;10.70;;
76566;SDS011;65428;53.194;6.132;2023-03-01T16:05:37;11.30;;;10.20;;
76566;SDS011;65428;53.194;6.132;2023-03-01T16:08:03;12.70;;;11.40;;
76566;SDS011;65428;53.194;6.132;2023-03-01T16:10:31;11.75;;;10.55;;
76566;SDS011;65428;53.194;6.132;2023-03-01T16:12:57;12.23;;;10.93;;
76566;SDS011;65428;53.194;6.132;2023-03-01T16:15:30;12.55;;;11.25;;
76566;SDS011;65428;53.194;6.132;2023-03-01T16:17:59;12.27;;;11.07;;
76566;SDS011;65428;53.194;6.132;2023-03-01T16:20:25;12.15;;;10.95;;
76566;SDS011;65428;53.194;6.132;2023-03-01T16:22:51;15.75;;;14.02;;
76566;SDS011;65428;53.194;6.132;2023-03-01T16:25:17;16.58;;;14.93;;
76566;SDS011;65428;53.194;6.132;2023-03-01T16:27:50;17.65;;;15.88;;
76566;SDS011;65428;53.194;6.132;2023-03-01T16:30:18;18.63;;;16.73;;
76566;SDS011;65428;53.194;6.132;2023-03-01T16:32:46;18.73;;;16.92;;
76566;SDS011;65428;53.194;6.132;2023-03-01T16:35:13;18.87;;;16.97;;
76566;SDS011;65428;53.194;6.132;2023-03-01T16:37:40;19.52;;;17.55;;
76566;SDS011;65428;53.194;6.132;2023-03-01T16:40:09;18.20;;;16.40;;
76566;SDS011;65428;53.194;6.132;2023-03-01T16:42:42;19.20;;;17.30;;
76566;SDS011;65428;53.194;6.132;2023-03-01T16:45:08;18.55;;;16.60;;